createdAt,value
2018-09-04T00:00:23.039Z,0
2018-09-04T00:01:23.611Z,0
2018-09-04T00:02:24.174Z,0
2018-09-04T00:03:24.735Z,0
2018-09-04T00:04:25.298Z,0
2018-09-04T00:05:25.841Z,0
2018-09-04T00:06:26.390Z,0
2018-09-04T00:07:26.944Z,0
2018-09-04T00:08:27.499Z,0
2018-09-04T00:09:28.055Z,0
2018-09-04T00:10:28.602Z,0
2018-09-04T00:11:29.157Z,0
2018-09-04T00:12:29.712Z,0
2018-09-04T00:13:30.259Z,0
2018-09-04T00:14:30.806Z,0
2018-09-04T00:15:31.367Z,0
2018-09-04T00:16:31.917Z,0
2018-09-04T00:17:32.472Z,0
2018-09-04T00:18:33.027Z,0
2018-09-04T00:19:33.580Z,0
2018-09-04T00:20:34.138Z,0
2018-09-04T00:21:34.683Z,0
2018-09-04T00:22:35.237Z,0
2018-09-04T00:23:35.795Z,0
2018-09-04T00:24:36.348Z,0
2018-09-04T00:25:36.903Z,0
2018-09-04T00:26:37.461Z,0
2018-09-04T00:27:38.016Z,0
2018-09-04T00:28:38.571Z,0
2018-09-04T00:29:39.116Z,0
2018-09-04T00:30:39.669Z,0
2018-09-04T00:31:40.223Z,0
2018-09-04T00:32:40.769Z,0
2018-09-04T00:33:41.322Z,0
2018-09-04T00:34:41.871Z,0
2018-09-04T00:35:42.425Z,0
2018-09-04T00:36:42.979Z,0
2018-09-04T00:37:43.534Z,0
2018-09-04T00:38:44.088Z,0
2018-09-04T00:39:44.642Z,0
2018-09-04T00:40:45.197Z,0
2018-09-04T00:41:45.749Z,0
2018-09-04T00:42:46.298Z,0
2018-09-04T00:43:46.857Z,0
2018-09-04T00:44:47.408Z,0
2018-09-04T00:45:47.963Z,0
2018-09-04T00:46:48.517Z,0
2018-09-04T00:47:49.074Z,0
2018-09-04T00:48:49.627Z,0
2018-09-04T00:49:50.181Z,0
2018-09-04T00:50:50.735Z,0
2018-09-04T00:51:51.287Z,0
2018-09-04T00:52:51.837Z,0
2018-09-04T00:53:52.391Z,0
2018-09-04T00:54:52.944Z,0
2018-09-04T00:55:53.496Z,0
2018-09-04T00:56:54.050Z,0
2018-09-04T00:57:54.604Z,0
2018-09-04T00:58:55.176Z,0
2018-09-04T00:59:55.711Z,0
2018-09-04T01:00:56.259Z,0
2018-09-04T01:01:56.805Z,0
2018-09-04T01:02:57.359Z,0
2018-09-04T01:03:57.916Z,0
2018-09-04T01:04:58.468Z,0
2018-09-04T01:05:59.024Z,0
2018-09-04T01:06:59.577Z,0
2018-09-04T01:08:00.132Z,0
2018-09-04T01:09:00.687Z,0
2018-09-04T01:10:01.242Z,0
2018-09-04T01:11:01.795Z,0
2018-09-04T01:12:02.343Z,0
2018-09-04T01:13:02.892Z,0
2018-09-04T01:14:03.458Z,0
2018-09-04T01:15:04.001Z,0
2018-09-04T01:16:04.552Z,0
2018-09-04T01:17:05.109Z,0
2018-09-04T01:18:05.661Z,0
2018-09-04T01:19:06.207Z,0
2018-09-04T01:20:06.765Z,0
2018-09-04T01:21:07.316Z,0
2018-09-04T01:22:07.868Z,0
2018-09-04T01:23:08.417Z,0
2018-09-04T01:24:08.968Z,0
2018-09-04T01:25:09.526Z,0
2018-09-04T01:26:10.076Z,0
2018-09-04T01:27:10.627Z,0
2018-09-04T01:28:11.184Z,0
2018-09-04T01:29:11.738Z,0
2018-09-04T01:30:12.281Z,0
2018-09-04T01:31:12.834Z,0
2018-09-04T01:32:13.382Z,0
2018-09-04T01:33:13.933Z,0
2018-09-04T01:34:14.488Z,0
2018-09-04T01:35:15.036Z,0
2018-09-04T01:36:15.589Z,0
2018-09-04T01:37:16.146Z,0
2018-09-04T01:38:16.702Z,0
2018-09-04T01:39:17.252Z,0
2018-09-04T01:40:17.807Z,0
2018-09-04T01:41:18.360Z,0
2018-09-04T01:42:18.918Z,0
2018-09-04T01:43:19.473Z,0
2018-09-04T01:44:20.027Z,0
2018-09-04T01:45:20.583Z,0
2018-09-04T01:46:21.135Z,0
2018-09-04T01:47:21.689Z,0
2018-09-04T01:48:22.246Z,0
2018-09-04T01:49:22.798Z,0
2018-09-04T01:50:23.352Z,0
2018-09-04T01:51:23.907Z,0
2018-09-04T01:52:24.460Z,0
2018-09-04T01:53:25.015Z,0
2018-09-04T01:54:25.572Z,0
2018-09-04T01:55:26.122Z,0
2018-09-04T01:56:26.668Z,0
2018-09-04T01:57:27.227Z,0
2018-09-04T01:58:27.778Z,0
2018-09-04T01:59:28.333Z,0
2018-09-04T02:00:28.891Z,0
2018-09-04T02:01:29.441Z,0
2018-09-04T02:02:29.988Z,0
2018-09-04T02:03:30.543Z,0
2018-09-04T02:04:31.097Z,0
2018-09-04T02:05:31.651Z,0
2018-09-04T02:06:32.204Z,0
2018-09-04T02:07:32.756Z,0
2018-09-04T02:08:33.311Z,0
2018-09-04T02:09:33.873Z,0
2018-09-04T02:10:34.421Z,0
2018-09-04T02:11:34.965Z,0
2018-09-04T02:12:35.521Z,0
2018-09-04T02:13:36.077Z,0
2018-09-04T02:14:36.628Z,0
2018-09-04T02:15:37.175Z,0
2018-09-04T02:16:37.736Z,0
2018-09-04T02:17:38.288Z,0
2018-09-04T02:18:38.833Z,0
2018-09-04T02:19:39.392Z,0
2018-09-04T02:20:39.949Z,0
2018-09-04T02:21:40.501Z,0
2018-09-04T02:22:41.055Z,0
2018-09-04T02:23:41.603Z,0
2018-09-04T02:24:42.159Z,0
2018-09-04T02:25:42.715Z,0
2018-09-04T02:26:43.263Z,0
2018-09-04T02:27:43.811Z,0
2018-09-04T02:28:44.368Z,0
2018-09-04T02:29:44.924Z,0
2018-09-04T02:30:45.468Z,0
2018-09-04T02:31:46.022Z,0
2018-09-04T02:32:46.575Z,0
2018-09-04T02:33:47.131Z,0
2018-09-04T02:34:47.691Z,0
2018-09-04T02:35:48.241Z,0
2018-09-04T02:36:48.797Z,0
2018-09-04T02:37:49.347Z,0
2018-09-04T02:38:49.905Z,0
2018-09-04T02:39:50.459Z,0
2018-09-04T02:40:51.005Z,0
2018-09-04T02:41:51.570Z,0
2018-09-04T02:42:52.112Z,0
2018-09-04T02:43:52.666Z,0
2018-09-04T02:44:53.226Z,0
2018-09-04T02:45:53.775Z,0
2018-09-04T02:46:54.333Z,0
2018-09-04T02:47:54.880Z,0
2018-09-04T02:48:55.434Z,0
2018-09-04T02:49:55.990Z,0
2018-09-04T02:50:56.550Z,0
2018-09-04T02:51:57.100Z,0
2018-09-04T02:52:57.646Z,0
2018-09-04T02:53:58.214Z,0
2018-09-04T02:54:58.753Z,0
2018-09-04T02:55:59.310Z,0
2018-09-04T02:56:59.863Z,0
2018-09-04T02:58:00.409Z,0
2018-09-04T02:59:00.964Z,0
2018-09-04T03:00:01.518Z,0
2018-09-04T03:01:02.075Z,0
2018-09-04T03:02:02.632Z,0
2018-09-04T03:03:03.187Z,0
2018-09-04T03:04:03.732Z,0
2018-09-04T03:05:04.289Z,0
2018-09-04T03:06:04.835Z,0
2018-09-04T03:07:05.388Z,0
2018-09-04T03:08:05.938Z,0
2018-09-04T03:09:06.484Z,0
2018-09-04T03:10:07.031Z,0
2018-09-04T03:11:07.586Z,0
2018-09-04T03:12:08.137Z,0
2018-09-04T03:13:08.692Z,0
2018-09-04T03:14:09.239Z,0
2018-09-04T03:15:09.793Z,0
2018-09-04T03:16:10.358Z,0
2018-09-04T03:17:10.903Z,0
2018-09-04T03:18:11.451Z,0
2018-09-04T03:19:11.998Z,0
2018-09-04T03:20:12.555Z,0
2018-09-04T03:21:13.099Z,0
2018-09-04T03:22:13.654Z,0
2018-09-04T03:23:14.213Z,0
2018-09-04T03:24:14.764Z,0
2018-09-04T03:25:15.318Z,0
2018-09-04T03:26:15.871Z,0
2018-09-04T03:27:16.423Z,0
2018-09-04T03:28:16.979Z,0
2018-09-04T03:29:17.533Z,0
2018-09-04T03:30:18.080Z,0
2018-09-04T03:31:18.633Z,0
2018-09-04T03:32:19.182Z,0
2018-09-04T03:33:19.730Z,0
2018-09-04T03:34:20.284Z,0
2018-09-04T03:35:20.841Z,0
2018-09-04T03:36:21.386Z,0
2018-09-04T03:37:21.940Z,0
2018-09-04T03:38:22.495Z,0
2018-09-04T03:39:23.049Z,0
2018-09-04T03:40:23.596Z,0
2018-09-04T03:41:24.149Z,0
2018-09-04T03:42:24.704Z,0
2018-09-04T03:43:25.249Z,0
2018-09-04T03:44:25.839Z,0
2018-09-04T03:45:26.346Z,0
2018-09-04T03:46:26.902Z,0
2018-09-04T03:47:27.458Z,0
2018-09-04T03:48:28.013Z,0
2018-09-04T03:49:28.559Z,0
2018-09-04T03:50:29.111Z,0
2018-09-04T03:51:29.665Z,0
2018-09-04T03:52:30.219Z,0
2018-09-04T03:53:30.775Z,0
2018-09-04T03:54:31.325Z,0
2018-09-04T03:55:31.879Z,0
2018-09-04T03:56:32.432Z,0
2018-09-04T03:57:32.986Z,0
2018-09-04T03:58:33.537Z,0
2018-09-04T03:59:34.092Z,0
2018-09-04T04:00:34.646Z,0
2018-09-04T04:01:35.330Z,0
2018-09-04T04:02:35.748Z,0
2018-09-04T04:03:36.306Z,0
2018-09-04T04:04:36.852Z,0
2018-09-04T04:05:37.408Z,0
2018-09-04T04:06:37.959Z,0
2018-09-04T04:07:38.514Z,0
2018-09-04T04:08:39.067Z,0
2018-09-04T04:09:39.624Z,0
2018-09-04T04:10:40.177Z,0
2018-09-04T04:11:40.732Z,0
2018-09-04T04:12:41.288Z,0
2018-09-04T04:13:41.850Z,0
2018-09-04T04:14:42.386Z,0
2018-09-04T04:15:42.942Z,0
2018-09-04T04:16:43.495Z,0
2018-09-04T04:17:44.047Z,0
2018-09-04T04:18:44.601Z,0
2018-09-04T04:19:45.155Z,4
2018-09-04T04:20:45.709Z,4
2018-09-04T04:21:46.260Z,4
2018-09-04T04:22:46.816Z,4
2018-09-04T04:23:47.371Z,0
2018-09-04T04:24:47.924Z,4
2018-09-04T04:25:48.475Z,4
2018-09-04T04:26:49.027Z,4
2018-09-04T04:27:49.574Z,4
2018-09-04T04:28:50.121Z,8
2018-09-04T04:29:50.667Z,8
2018-09-04T04:30:51.220Z,8
2018-09-04T04:31:51.774Z,12
2018-09-04T04:32:52.335Z,12
2018-09-04T04:33:52.885Z,16
2018-09-04T04:34:53.438Z,20
2018-09-04T04:35:53.996Z,24
2018-09-04T04:36:54.548Z,28
2018-09-04T04:37:55.101Z,40
2018-09-04T04:38:55.653Z,44
2018-09-04T04:39:56.233Z,52
2018-09-04T04:40:56.766Z,56
2018-09-04T04:41:57.310Z,64
2018-09-04T04:42:57.855Z,76
2018-09-04T04:43:58.401Z,84
2018-09-04T04:44:58.957Z,96
2018-09-04T04:45:59.512Z,112
2018-09-04T04:47:00.071Z,128
2018-09-04T04:48:00.662Z,148
2018-09-04T04:49:01.170Z,168
2018-09-04T04:50:01.748Z,184
2018-09-04T04:51:02.276Z,204
2018-09-04T04:52:02.828Z,216
2018-09-04T04:53:03.379Z,236
2018-09-04T04:54:03.934Z,264
2018-09-04T04:55:04.494Z,292
2018-09-04T04:56:05.053Z,316
2018-09-04T04:57:05.608Z,340
2018-09-04T04:58:06.163Z,368
2018-09-04T04:59:06.718Z,400
2018-09-04T05:00:07.275Z,420
2018-09-04T05:01:07.833Z,456
2018-09-04T05:02:08.385Z,484
2018-09-04T05:03:08.946Z,516
2018-09-04T05:04:09.492Z,552
2018-09-04T05:05:10.052Z,592
2018-09-04T05:06:10.615Z,624
2018-09-04T05:07:11.189Z,656
2018-09-04T05:08:11.728Z,696
2018-09-04T05:09:12.284Z,740
2018-09-04T05:10:12.839Z,800
2018-09-04T05:11:13.481Z,880
2018-09-04T05:12:13.954Z,980
2018-09-04T05:13:14.521Z,1060
2018-09-04T05:14:15.075Z,1156
2018-09-04T05:15:15.640Z,1272
2018-09-04T05:16:16.199Z,1388
2018-09-04T05:17:16.757Z,1476
2018-09-04T05:18:17.318Z,1544
2018-09-04T05:19:17.878Z,1620
2018-09-04T05:20:18.437Z,1656
2018-09-04T05:21:18.997Z,1700
2018-09-04T05:22:19.555Z,1732
2018-09-04T05:23:20.111Z,1792
2018-09-04T05:24:20.666Z,1864
2018-09-04T05:25:21.223Z,1904
2018-09-04T05:26:21.784Z,1900
2018-09-04T05:27:22.343Z,1884
2018-09-04T05:28:22.908Z,1852
2018-09-04T05:29:23.472Z,1796
2018-09-04T05:30:24.021Z,1792
2018-09-04T05:31:24.580Z,1840
2018-09-04T05:32:25.140Z,1916
2018-09-04T05:33:25.699Z,2004
2018-09-04T05:34:26.249Z,2084
2018-09-04T05:35:26.811Z,2128
2018-09-04T05:36:27.370Z,2196
2018-09-04T05:37:27.932Z,2196
2018-09-04T05:38:28.485Z,2168
2018-09-04T05:39:29.046Z,2176
2018-09-04T05:40:29.600Z,2244
2018-09-04T05:41:30.158Z,2324
2018-09-04T05:42:30.717Z,2416
2018-09-04T05:43:31.269Z,2520
2018-09-04T05:44:31.837Z,2592
2018-09-04T05:45:32.385Z,2600
2018-09-04T05:46:32.945Z,2548
2018-09-04T05:47:33.505Z,2480
2018-09-04T05:48:34.065Z,2392
2018-09-04T05:49:34.625Z,2320
2018-09-04T05:50:35.182Z,2292
2018-09-04T05:51:35.734Z,2312
2018-09-04T05:52:36.295Z,2352
2018-09-04T05:53:36.853Z,2356
2018-09-04T05:54:37.437Z,2364
2018-09-04T05:55:37.985Z,2364
2018-09-04T05:56:38.544Z,2364
2018-09-04T05:57:39.124Z,2384
2018-09-04T05:58:39.674Z,2408
2018-09-04T05:59:40.232Z,2404
2018-09-04T06:00:40.784Z,2456
2018-09-04T06:01:41.341Z,2488
2018-09-04T06:02:41.900Z,2572
2018-09-04T06:03:42.461Z,2664
2018-09-04T06:04:43.015Z,2752
2018-09-04T06:05:43.576Z,2900
2018-09-04T06:06:44.133Z,3060
2018-09-04T06:07:44.692Z,3172
2018-09-04T06:08:45.244Z,3244
2018-09-04T06:09:45.807Z,3332
2018-09-04T06:10:46.359Z,3508
2018-09-04T06:11:46.914Z,3724
2018-09-04T06:12:47.473Z,3988
2018-09-04T06:13:48.197Z,4244
2018-09-04T06:14:48.594Z,4404
2018-09-04T06:15:49.142Z,4636
2018-09-04T06:16:49.704Z,4784
2018-09-04T06:17:50.255Z,4920
2018-09-04T06:18:50.817Z,5080
2018-09-04T06:19:51.468Z,5072
2018-09-04T06:20:52.017Z,5188
2018-09-04T06:21:52.590Z,5236
2018-09-04T06:22:53.169Z,5396
2018-09-04T06:23:53.797Z,5748
2018-09-04T06:24:54.347Z,5744
2018-09-04T06:25:54.909Z,5680
2018-09-04T06:26:55.471Z,5624
2018-09-04T06:27:56.078Z,5772
2018-09-04T06:28:56.631Z,5848
2018-09-04T06:29:57.195Z,5916
2018-09-04T06:30:57.752Z,6052
2018-09-04T06:31:58.311Z,6256
2018-09-04T06:32:58.869Z,6212
2018-09-04T06:33:59.478Z,5924
2018-09-04T06:34:59.990Z,5868
2018-09-04T06:36:00.544Z,5864
2018-09-04T06:37:01.105Z,5932
2018-09-04T06:38:01.654Z,6028
2018-09-04T06:39:02.217Z,6092
2018-09-04T06:40:02.777Z,6104
2018-09-04T06:41:03.338Z,5932
2018-09-04T06:42:03.896Z,5752
2018-09-04T06:43:04.459Z,5636
2018-09-04T06:44:05.024Z,5520
2018-09-04T06:45:05.594Z,5536
2018-09-04T06:46:06.167Z,5548
2018-09-04T06:47:06.733Z,5508
2018-09-04T06:48:07.294Z,5392
2018-09-04T06:49:07.853Z,5392
2018-09-04T06:50:08.521Z,5652
2018-09-04T06:51:09.075Z,5872
2018-09-04T06:52:09.640Z,5504
2018-09-04T06:53:10.289Z,5524
2018-09-04T06:54:10.847Z,5220
2018-09-04T06:55:11.414Z,5120
2018-09-04T06:56:11.977Z,5320
2018-09-04T06:57:12.525Z,5408
2018-09-04T06:58:13.082Z,5160
2018-09-04T06:59:13.634Z,5152
2018-09-04T07:00:14.195Z,4832
2018-09-04T07:01:14.756Z,4820
2018-09-04T07:02:15.321Z,4896
2018-09-04T07:03:15.871Z,5136
2018-09-04T07:04:16.435Z,5436
2018-09-04T07:05:16.992Z,6280
2018-09-04T07:06:17.556Z,7600
2018-09-04T07:07:18.160Z,7964
2018-09-04T07:08:18.716Z,7772
2018-09-04T07:09:19.278Z,8372
2018-09-04T07:10:19.837Z,8072
2018-09-04T07:11:20.399Z,7516
2018-09-04T07:12:20.951Z,7328
2018-09-04T07:13:21.512Z,7480
2018-09-04T07:14:22.070Z,7952
2018-09-04T07:15:22.630Z,8204
2018-09-04T07:16:23.184Z,7804
2018-09-04T07:17:23.741Z,7084
2018-09-04T07:18:24.301Z,7136
2018-09-04T07:19:24.858Z,6944
2018-09-04T07:20:25.420Z,7732
2018-09-04T07:21:25.983Z,8208
2018-09-04T07:22:26.537Z,8552
2018-09-04T07:23:27.096Z,8624
2018-09-04T07:24:27.654Z,8864
2018-09-04T07:25:28.208Z,9768
2018-09-04T07:26:28.767Z,9180
2018-09-04T07:27:29.329Z,9488
2018-09-04T07:28:29.895Z,10100
2018-09-04T07:29:30.455Z,9916
2018-09-04T07:30:31.009Z,10552
2018-09-04T07:31:31.572Z,12008
2018-09-04T07:32:32.134Z,13320
2018-09-04T07:33:32.692Z,12324
2018-09-04T07:34:33.258Z,10912
2018-09-04T07:35:33.819Z,10784
2018-09-04T07:36:34.380Z,10084
2018-09-04T07:37:34.935Z,11016
2018-09-04T07:38:35.495Z,11972
2018-09-04T07:39:36.059Z,11672
2018-09-04T07:40:36.625Z,11160
2018-09-04T07:41:37.241Z,10692
2018-09-04T07:42:37.792Z,9508
2018-09-04T07:43:38.351Z,9060
2018-09-04T07:44:38.907Z,9604
2018-09-04T07:45:39.468Z,10540
2018-09-04T07:46:40.036Z,11328
2018-09-04T07:47:40.598Z,10672
2018-09-04T07:48:41.157Z,10236
2018-09-04T07:49:41.719Z,9892
2018-09-04T07:50:42.276Z,9588
2018-09-04T07:51:42.836Z,9092
2018-09-04T07:52:43.398Z,8904
2018-09-04T07:53:44.034Z,8984
2018-09-04T07:54:44.528Z,9324
2018-09-04T07:55:45.083Z,9328
2018-09-04T07:56:45.645Z,9476
2018-09-04T07:57:46.198Z,9452
2018-09-04T07:58:46.759Z,9324
2018-09-04T07:59:47.327Z,9620
2018-09-04T08:00:47.910Z,9796
2018-09-04T08:01:48.444Z,10672
2018-09-04T08:02:49.012Z,11012
2018-09-04T08:03:49.567Z,10804
2018-09-04T08:04:50.132Z,10576
2018-09-04T08:05:50.696Z,10436
2018-09-04T08:06:51.252Z,9588
2018-09-04T08:07:51.817Z,8800
2018-09-04T08:08:52.372Z,8600
2018-09-04T08:09:52.926Z,9024
2018-09-04T08:10:53.479Z,9352
2018-09-04T08:11:54.039Z,9664
2018-09-04T08:12:54.606Z,9368
2018-09-04T08:13:55.165Z,8828
2018-09-04T08:14:55.727Z,8828
2018-09-04T08:15:56.284Z,9348
2018-09-04T08:16:56.847Z,10212
2018-09-04T08:17:57.773Z,11392
2018-09-04T08:18:58.234Z,12356
2018-09-04T08:19:58.808Z,12192
2018-09-04T08:20:59.511Z,11792
2018-09-04T08:21:59.915Z,13428
2018-09-04T08:23:00.471Z,17472
2018-09-04T08:24:01.032Z,18208
2018-09-04T08:25:01.599Z,15964
2018-09-04T08:26:02.182Z,13036
2018-09-04T08:27:02.712Z,11780
2018-09-04T08:28:03.273Z,11584
2018-09-04T08:29:03.832Z,10808
2018-09-04T08:30:04.420Z,10388
2018-09-04T08:31:04.972Z,10724
2018-09-04T08:32:05.539Z,10528
2018-09-04T08:33:06.106Z,10592
2018-09-04T08:34:06.663Z,10600
2018-09-04T08:35:07.311Z,10688
2018-09-04T08:36:07.870Z,11136
2018-09-04T08:37:08.436Z,11712
2018-09-04T08:38:08.985Z,13660
2018-09-04T08:39:09.553Z,15704
2018-09-04T08:40:10.218Z,16004
2018-09-04T08:41:10.677Z,14812
2018-09-04T08:42:11.375Z,13760
2018-09-04T08:43:11.836Z,13716
2018-09-04T08:44:12.400Z,13576
2018-09-04T08:45:12.959Z,14288
2018-09-04T08:46:13.517Z,15096
2018-09-04T08:47:14.098Z,15904
2018-09-04T08:48:14.646Z,18000
2018-09-04T08:49:15.208Z,19456
2018-09-04T08:50:15.773Z,17932
2018-09-04T08:51:16.336Z,15744
2018-09-04T08:52:16.906Z,15088
2018-09-04T08:53:17.550Z,15772
2018-09-04T08:54:18.023Z,16132
2018-09-04T08:55:18.621Z,16256
2018-09-04T08:56:19.140Z,16512
2018-09-04T08:57:19.704Z,16604
2018-09-04T08:58:20.319Z,16404
2018-09-04T08:59:20.896Z,16104
2018-09-04T09:00:21.448Z,15836
2018-09-04T09:01:22.018Z,15660
2018-09-04T09:02:22.576Z,15724
2018-09-04T09:03:23.139Z,15952
2018-09-04T09:04:23.704Z,16536
2018-09-04T09:05:24.302Z,17548
2018-09-04T09:06:24.834Z,17468
2018-09-04T09:07:25.403Z,16884
2018-09-04T09:08:25.965Z,16632
2018-09-04T09:09:26.519Z,16832
2018-09-04T09:10:27.078Z,17160
2018-09-04T09:11:27.633Z,16920
2018-09-04T09:12:28.189Z,16376
2018-09-04T09:13:28.756Z,15476
2018-09-04T09:14:29.324Z,14652
2018-09-04T09:15:29.886Z,14564
2018-09-04T09:16:30.445Z,14652
2018-09-04T09:17:31.005Z,14396
2018-09-04T09:18:31.585Z,13812
2018-09-04T09:19:32.147Z,13552
2018-09-04T09:20:32.711Z,13608
2018-09-04T09:21:33.274Z,14104
2018-09-04T09:22:33.912Z,14404
2018-09-04T09:23:34.473Z,14144
2018-09-04T09:24:35.036Z,14148
2018-09-04T09:25:35.597Z,13584
2018-09-04T09:26:36.162Z,13580
2018-09-04T09:27:36.724Z,13812
2018-09-04T09:28:37.292Z,13748
2018-09-04T09:29:37.851Z,13664
2018-09-04T09:30:38.462Z,13752
2018-09-04T09:31:39.023Z,16184
2018-09-04T09:32:39.583Z,17900
2018-09-04T09:33:40.151Z,20000
2018-09-04T09:34:40.717Z,21888
2018-09-04T09:35:41.274Z,23456
2018-09-04T09:36:41.987Z,23808
2018-09-04T09:37:42.391Z,23936
2018-09-04T09:38:42.953Z,22976
2018-09-04T09:39:43.524Z,22176
2018-09-04T09:40:44.075Z,21696
2018-09-04T09:41:44.639Z,20896
2018-09-04T09:42:45.207Z,20672
2018-09-04T09:43:45.771Z,20160
2018-09-04T09:44:46.340Z,19168
2018-09-04T09:45:47.053Z,18588
2018-09-04T09:46:47.619Z,18944
2018-09-04T09:47:48.183Z,19936
2018-09-04T09:48:48.752Z,21088
2018-09-04T09:49:49.313Z,22048
2018-09-04T09:50:50.292Z,21824
2018-09-04T09:51:50.789Z,23840
2018-09-04T09:52:51.367Z,25536
2018-09-04T09:53:51.924Z,25440
2018-09-04T09:54:52.478Z,25440
2018-09-04T09:55:53.048Z,24672
2018-09-04T09:56:53.607Z,25120
2018-09-04T09:57:54.193Z,28960
2018-09-04T09:58:54.748Z,32192
2018-09-04T09:59:55.329Z,32544
2018-09-04T10:00:55.887Z,34240
2018-09-04T10:01:56.432Z,36768
2018-09-04T10:02:56.998Z,34592
2018-09-04T10:03:57.615Z,30656
2018-09-04T10:04:58.130Z,31264
2018-09-04T10:05:58.703Z,38208
2018-09-04T10:06:59.265Z,56576
2018-09-04T10:07:59.857Z,45440
2018-09-04T10:09:00.397Z,41568
2018-09-04T10:10:00.993Z,40672
2018-09-04T10:11:01.531Z,47328
2018-09-04T10:12:02.096Z,59488
2018-09-04T10:13:02.662Z,52352
2018-09-04T10:14:03.231Z,48512
2018-09-04T10:15:03.804Z,49792
2018-09-04T10:16:04.373Z,49984
2018-09-04T10:17:04.946Z,65600
2018-09-04T10:18:05.516Z,62848
2018-09-04T10:19:06.084Z,42304
2018-09-04T10:20:06.685Z,39424
2018-09-04T10:21:07.232Z,74432
2018-09-04T10:22:07.806Z,70048
2018-09-04T10:23:08.375Z,70176
2018-09-04T10:24:08.947Z,71712
2018-09-04T10:25:09.519Z,72160
2018-09-04T10:26:10.091Z,73056
2018-09-04T10:27:10.659Z,71008
2018-09-04T10:28:11.229Z,70016
2018-09-04T10:29:11.801Z,69408
2018-09-04T10:30:12.376Z,69568
2018-09-04T10:31:12.947Z,71872
2018-09-04T10:32:13.634Z,71296
2018-09-04T10:33:14.202Z,72608
2018-09-04T10:34:14.774Z,73056
2018-09-04T10:35:15.348Z,73440
2018-09-04T10:36:15.991Z,72768
2018-09-04T10:37:16.500Z,72704
2018-09-04T10:38:17.135Z,73120
2018-09-04T10:39:17.698Z,70784
2018-09-04T10:40:18.267Z,67360
2018-09-04T10:41:18.843Z,67872
2018-09-04T10:42:19.418Z,69184
2018-09-04T10:43:19.991Z,69632
2018-09-04T10:44:20.644Z,74368
2018-09-04T10:45:21.133Z,74752
2018-09-04T10:46:21.707Z,72864
2018-09-04T10:47:22.281Z,71328
2018-09-04T10:48:22.856Z,70560
2018-09-04T10:49:23.422Z,70528
2018-09-04T10:50:24.000Z,69536
2018-09-04T10:51:24.573Z,70912
2018-09-04T10:52:25.256Z,72832
2018-09-04T10:53:26.046Z,73696
2018-09-04T10:54:26.620Z,74816
2018-09-04T10:55:27.173Z,73408
2018-09-04T10:56:27.750Z,72512
2018-09-04T10:57:28.329Z,70144
2018-09-04T10:58:28.904Z,67680
2018-09-04T10:59:29.475Z,69216
2018-09-04T11:00:30.046Z,68352
2018-09-04T11:01:30.617Z,67776
2018-09-04T11:02:31.185Z,68640
2018-09-04T11:03:31.763Z,72960
2018-09-04T11:04:32.332Z,73696
2018-09-04T11:05:32.901Z,74496
2018-09-04T11:06:33.467Z,72320
2018-09-04T11:07:34.041Z,73568
2018-09-04T11:08:34.615Z,72224
2018-09-04T11:09:35.240Z,72832
2018-09-04T11:10:35.761Z,71648
2018-09-04T11:11:36.339Z,69984
2018-09-04T11:12:36.911Z,68992
2018-09-04T11:13:37.487Z,67872
2018-09-04T11:14:38.053Z,68512
2018-09-04T11:15:38.627Z,71168
2018-09-04T11:16:39.202Z,70016
2018-09-04T11:17:39.779Z,71072
2018-09-04T11:18:40.352Z,71168
2018-09-04T11:19:40.920Z,71904
2018-09-04T11:20:41.487Z,71392
2018-09-04T11:21:42.067Z,69600
2018-09-04T11:22:42.644Z,68992
2018-09-04T11:23:43.245Z,66976
2018-09-04T11:24:43.812Z,64928
2018-09-04T11:25:44.387Z,65568
2018-09-04T11:26:44.953Z,66080
2018-09-04T11:27:45.531Z,71200
2018-09-04T11:28:46.113Z,70720
2018-09-04T11:29:46.684Z,69344
2018-09-04T11:30:47.358Z,68448
2018-09-04T11:31:47.826Z,68864
2018-09-04T11:32:48.404Z,68672
2018-09-04T11:33:48.981Z,70240
2018-09-04T11:34:49.555Z,70464
2018-09-04T11:35:50.130Z,68832
2018-09-04T11:36:50.703Z,67200
2018-09-04T11:37:51.277Z,67520
2018-09-04T11:38:51.852Z,65952
2018-09-04T11:39:52.432Z,66560
2018-09-04T11:40:53.007Z,68896
2018-09-04T11:41:53.581Z,68608
2018-09-04T11:42:54.157Z,68768
2018-09-04T11:43:54.729Z,69440
2018-09-04T11:44:55.306Z,68896
2018-09-04T11:45:55.875Z,68864
2018-09-04T11:46:56.505Z,69024
2018-09-04T11:47:57.025Z,70144
2018-09-04T11:48:57.607Z,70912
2018-09-04T11:49:58.181Z,72544
2018-09-04T11:50:58.758Z,73248
2018-09-04T11:51:59.332Z,73344
2018-09-04T11:52:59.905Z,73632
2018-09-04T11:54:00.489Z,71584
2018-09-04T11:55:01.066Z,71424
2018-09-04T11:56:01.719Z,70784
2018-09-04T11:57:02.291Z,67712
2018-09-04T11:58:02.868Z,70944
2018-09-04T11:59:03.447Z,74848
2018-09-04T12:00:04.020Z,74080
2018-09-04T12:01:04.587Z,73568
2018-09-04T12:02:05.182Z,71424
2018-09-04T12:03:05.743Z,70816
2018-09-04T12:04:06.317Z,45248
2018-09-04T12:05:06.937Z,45600
2018-09-04T12:06:07.553Z,41536
2018-09-04T12:07:08.113Z,69600
2018-09-04T12:08:08.710Z,68640
2018-09-04T12:09:09.272Z,40160
2018-09-04T12:10:09.848Z,39168
2018-09-04T12:11:10.428Z,35168
2018-09-04T12:12:11.015Z,34816
2018-09-04T12:13:11.632Z,36032
2018-09-04T12:14:12.151Z,40160
2018-09-04T12:15:12.728Z,57856
2018-09-04T12:16:13.302Z,72832
2018-09-04T12:17:13.880Z,41728
2018-09-04T12:18:14.449Z,42848
2018-09-04T12:19:15.038Z,61696
2018-09-04T12:20:15.598Z,64608
2018-09-04T12:21:16.237Z,70880
2018-09-04T12:22:16.740Z,79296
2018-09-04T12:23:17.332Z,76224
2018-09-04T12:24:17.918Z,55744
2018-09-04T12:25:18.498Z,62560
2018-09-04T12:26:19.076Z,66784
2018-09-04T12:27:19.704Z,71584
2018-09-04T12:28:20.226Z,72768
2018-09-04T12:29:20.804Z,61568
2018-09-04T12:30:21.376Z,61920
2018-09-04T12:31:21.958Z,39360
2018-09-04T12:32:22.533Z,68992
2018-09-04T12:33:23.127Z,36512
2018-09-04T12:34:23.697Z,33856
2018-09-04T12:35:24.273Z,38432
2018-09-04T12:36:24.906Z,67296
2018-09-04T12:37:25.428Z,69344
2018-09-04T12:38:26.007Z,69056
2018-09-04T12:39:26.569Z,69760
2018-09-04T12:40:27.165Z,66464
2018-09-04T12:41:27.730Z,54176
2018-09-04T12:42:28.368Z,50528
2018-09-04T12:43:28.880Z,60224
2018-09-04T12:44:29.456Z,58560
2018-09-04T12:45:30.033Z,53792
2018-09-04T12:46:30.606Z,36000
2018-09-04T12:47:31.179Z,51936
2018-09-04T12:48:31.873Z,54784
2018-09-04T12:49:32.326Z,53920
2018-09-04T12:50:32.893Z,61376
2018-09-04T12:51:33.467Z,61888
2018-09-04T12:52:34.045Z,60992
2018-09-04T12:53:34.619Z,46400
2018-09-04T12:54:35.241Z,43264
2018-09-04T12:55:35.780Z,58784
2018-09-04T12:56:36.359Z,58976
2018-09-04T12:57:36.935Z,58304
2018-09-04T12:58:37.505Z,57536
2018-09-04T12:59:38.083Z,56320
2018-09-04T13:00:38.676Z,61152
2018-09-04T13:01:39.251Z,57024
2018-09-04T13:02:39.828Z,44672
2018-09-04T13:03:40.407Z,51200
2018-09-04T13:04:40.991Z,64960
2018-09-04T13:05:41.559Z,67840
2018-09-04T13:06:42.125Z,71616
2018-09-04T13:07:42.692Z,71008
2018-09-04T13:08:43.268Z,69568
2018-09-04T13:09:43.835Z,63360
2018-09-04T13:10:44.404Z,59360
2018-09-04T13:11:44.990Z,48224
2018-09-04T13:12:45.572Z,61728
2018-09-04T13:13:46.150Z,44160
2018-09-04T13:14:46.727Z,34912
2018-09-04T13:15:47.291Z,35392
2018-09-04T13:16:47.867Z,41472
2018-09-04T13:17:48.439Z,43136
2018-09-04T13:18:49.014Z,65856
2018-09-04T13:19:49.587Z,64320
2018-09-04T13:20:50.164Z,62368
2018-09-04T13:21:50.770Z,49856
2018-09-04T13:22:51.313Z,45952
2018-09-04T13:23:51.876Z,32192
2018-09-04T13:24:52.447Z,29472
2018-09-04T13:25:53.019Z,28480
2018-09-04T13:26:53.594Z,27008
2018-09-04T13:27:54.175Z,29088
2018-09-04T13:28:54.747Z,33248
2018-09-04T13:29:55.312Z,35936
2018-09-04T13:30:55.887Z,38304
2018-09-04T13:31:56.461Z,27968
2018-09-04T13:32:57.027Z,47648
2018-09-04T13:33:57.594Z,26528
2018-09-04T13:34:58.168Z,26432
2018-09-04T13:35:58.744Z,27008
2018-09-04T13:36:59.312Z,29440
2018-09-04T13:37:59.884Z,32352
2018-09-04T13:39:00.448Z,30752
2018-09-04T13:40:01.019Z,28736
2018-09-04T13:41:01.589Z,28704
2018-09-04T13:42:02.207Z,28832
2018-09-04T13:43:02.726Z,53888